Time;durP1;ratioP1;P1;durP2;ratioP2;P2;SDS_P1;SDS_P2;PMS_P1;PMS_P2;Temp;Humidity;BMP_temperature;BMP_pressure;BME280_temperature;BME280_humidity;BME280_pressure;Samples;Min_cycle;Max_cycle;Signal;HPM_P1;HPM_P2
2022/07/06 00:01:48;;;;;;;4.85;1.40;;;;;;;14.70;100.00;97278.38;5038327;28;20060;-74
2022/07/06 00:04:13;;;;;;;5.75;1.55;;;;;;;14.76;100.00;97280.06;5036840;28;20034;-74
2022/07/06 00:06:39;;;;;;;5.30;1.55;;;;;;;14.80;100.00;97274.19;5035687;28;20108;-75
2022/07/06 00:09:05;;;;;;;4.93;1.50;;;;;;;14.69;100.00;97284.03;5036332;28;20044;-74
2022/07/06 00:11:31;;;;;;;6.07;1.63;;;;;;;14.65;100.00;97278.34;5037615;28;20113;-74
2022/07/06 00:13:56;;;;;;;4.32;1.45;;;;;;;14.67;100.00;97284.28;5038239;28;20567;-74
2022/07/06 00:16:23;;;;;;;5.35;1.45;;;;;;;14.64;100.00;97281.31;5035318;28;20044;-74
2022/07/06 00:18:48;;;;;;;4.15;1.35;;;;;;;14.66;100.00;97290.75;5039087;28;20462;-74
2022/07/06 00:21:14;;;;;;;5.60;1.30;;;;;;;14.68;100.00;97288.59;5035701;28;20045;-74
2022/07/06 00:23:40;;;;;;;4.15;1.42;;;;;;;14.71;100.00;97282.72;5036449;28;20116;-74
2022/07/06 00:26:06;;;;;;;4.20;1.60;;;;;;;14.70;100.00;97286.47;5037221;28;20112;-74
2022/07/06 00:28:31;;;;;;;4.72;1.58;;;;;;;14.57;100.00;97286.88;5035572;28;20029;-74
2022/07/06 00:30:57;;;;;;;6.57;1.60;;;;;;;14.55;100.00;97283.63;5037027;28;20036;-74
2022/07/06 00:33:22;;;;;;;5.68;1.30;;;;;;;14.32;100.00;97279.31;5038543;28;20033;-74
2022/07/06 00:35:49;;;;;;;5.18;1.98;;;;;;;14.09;100.00;97285.78;5038061;28;20349;-74
2022/07/06 00:38:15;;;;;;;4.70;1.40;;;;;;;14.17;100.00;97285.34;5037698;28;20026;-74
2022/07/06 00:40:41;;;;;;;8.15;1.33;;;;;;;14.06;100.00;97275.50;5055307;28;20037;-74
2022/07/06 00:43:06;;;;;;;3.08;1.67;;;;;;;14.09;100.00;97277.72;5035580;28;20094;-74
2022/07/06 00:45:32;;;;;;;3.45;1.50;;;;;;;14.14;100.00;97282.31;5037561;28;20458;-74
2022/07/06 00:47:57;;;;;;;4.68;1.85;;;;;;;14.03;100.00;97269.81;5035407;28;20120;-74
2022/07/06 00:50:23;;;;;;;4.32;1.75;;;;;;;13.90;100.00;97269.13;5035245;28;20116;-74
2022/07/06 00:52:54;;;;;;;4.82;1.35;;;;;;;13.87;100.00;97266.13;5037246;28;20086;-74
2022/07/06 00:55:25;;;;;;;5.57;1.50;;;;;;;13.81;100.00;97270.63;5034939;28;20052;-74
2022/07/06 00:57:51;;;;;;;3.55;1.25;;;;;;;13.83;100.00;97273.06;5037417;28;20589;-73
2022/07/06 01:00:20;;;;;;;6.95;1.50;;;;;;;13.65;100.00;97277.66;5034403;28;20116;-74
2022/07/06 01:02:46;;;;;;;5.18;2.67;;;;;;;13.61;100.00;97276.53;5050254;28;20083;-74
2022/07/06 01:05:13;;;;;;;5.63;1.73;;;;;;;13.59;100.00;97278.66;5037573;28;20052;-74
2022/07/06 01:07:41;;;;;;;3.65;1.40;;;;;;;13.61;100.00;97278.41;5034577;28;20047;-75
2022/07/06 01:10:08;;;;;;;4.78;1.70;;;;;;;13.57;100.00;97283.47;5035561;28;20118;-74
2022/07/06 01:12:36;;;;;;;3.83;1.52;;;;;;;13.54;100.00;97283.97;5039278;28;20047;-74
2022/07/06 01:15:03;;;;;;;5.25;1.60;;;;;;;13.52;100.00;97282.59;5035476;28;20037;-74
2022/07/06 01:17:30;;;;;;;5.45;1.30;;;;;;;13.48;100.00;97276.09;5035746;28;20060;-74
2022/07/06 01:19:55;;;;;;;6.32;2.00;;;;;;;13.42;100.00;97275.19;5054769;28;20060;-74
2022/07/06 01:22:21;;;;;;;3.78;1.30;;;;;;;13.40;100.00;97274.63;5042354;28;20495;-75
2022/07/06 01:24:46;;;;;;;2.90;1.20;;;;;;;13.35;100.00;97275.34;5038107;28;20032;-74
2022/07/06 01:27:12;;;;;;;2.90;1.40;;;;;;;13.25;100.00;97283.28;5036561;28;20146;-74
2022/07/06 01:29:37;;;;;;;4.40;1.50;;;;;;;13.13;100.00;97284.38;5035009;28;20685;-74
2022/07/06 01:32:03;;;;;;;3.97;1.38;;;;;;;13.12;100.00;97275.50;5037115;28;20127;-75
2022/07/06 01:34:28;;;;;;;5.13;1.50;;;;;;;13.11;100.00;97272.00;5034583;28;20092;-74
2022/07/06 01:36:54;;;;;;;6.53;1.50;;;;;;;12.99;100.00;97276.63;5037196;28;20063;-74
2022/07/06 01:39:20;;;;;;;4.35;1.50;;;;;;;12.89;100.00;97267.59;5049451;28;20340;-73
2022/07/06 01:41:45;;;;;;;4.45;1.50;;;;;;;12.88;100.00;97280.22;5032553;28;20440;-74
2022/07/06 01:44:11;;;;;;;6.32;1.67;;;;;;;12.88;100.00;97280.22;5035992;28;20061;-75
2022/07/06 01:46:38;;;;;;;5.38;1.40;;;;;;;12.98;100.00;97275.00;5031742;28;20126;-74
2022/07/06 01:49:04;;;;;;;6.53;1.88;;;;;;;12.84;100.00;97273.72;5048599;28;20040;-74
2022/07/06 01:51:30;;;;;;;4.80;1.50;;;;;;;12.72;100.00;97281.00;5038138;28;20029;-74
2022/07/06 01:54:00;;;;;;;7.15;1.55;;;;;;;12.71;100.00;97274.81;5051801;28;20423;-74
2022/07/06 01:56:26;;;;;;;5.95;1.55;;;;;;;12.71;100.00;97265.97;5035176;28;20037;-74
2022/07/06 01:58:57;;;;;;;7.95;1.77;;;;;;;12.72;100.00;97264.91;5035520;28;20136;-75
2022/07/06 02:01:23;;;;;;;5.07;1.60;;;;;;;12.56;100.00;97261.13;5050481;28;20488;-74
2022/07/06 02:03:48;;;;;;;4.38;1.50;;;;;;;12.53;100.00;97265.13;5050889;28;20033;-74
2022/07/06 02:06:14;;;;;;;6.28;1.77;;;;;;;12.59;100.00;97270.56;5033256;28;20051;-74
2022/07/06 02:08:41;;;;;;;6.38;1.95;;;;;;;12.52;100.00;97266.16;5048835;28;20032;-75
2022/07/06 02:11:08;;;;;;;3.53;1.55;;;;;;;12.45;100.00;97273.56;5036387;28;20439;-74
2022/07/06 02:13:36;;;;;;;5.45;1.63;;;;;;;12.27;100.00;97265.69;5035791;28;20541;-74
2022/07/06 02:16:04;;;;;;;6.22;2.17;;;;;;;12.24;100.00;97268.88;5031807;28;20037;-74
2022/07/06 02:18:30;;;;;;;3.75;1.67;;;;;;;12.38;100.00;97264.84;5036999;28;20048;-74
2022/07/06 02:20:56;;;;;;;5.57;1.73;;;;;;;12.42;100.00;97268.66;5018935;28;20512;-74
2022/07/06 02:23:22;;;;;;;5.22;1.63;;;;;;;12.54;100.00;97266.75;5028605;28;20047;-74
2022/07/06 02:25:49;;;;;;;4.72;1.55;;;;;;;12.53;100.00;97275.88;5048002;28;20112;-74
2022/07/06 02:28:14;;;;;;;4.68;1.65;;;;;;;12.50;100.00;97272.81;5031188;28;20032;-74
2022/07/06 02:30:40;;;;;;;4.95;1.70;;;;;;;12.73;100.00;97271.91;5035358;28;20131;-75
2022/07/06 02:33:06;;;;;;;4.18;1.90;;;;;;;12.82;100.00;97273.13;5047440;28;20028;-74
2022/07/06 02:35:32;;;;;;;4.05;1.67;;;;;;;12.69;100.00;97278.81;5032695;28;20189;-74
2022/07/06 02:37:57;;;;;;;5.28;1.60;;;;;;;12.58;100.00;97283.19;5032038;28;20425;-74
2022/07/06 02:40:23;;;;;;;4.43;1.70;;;;;;;12.56;100.00;97282.59;5033721;28;20153;-74
2022/07/06 02:42:48;;;;;;;5.03;2.20;;;;;;;12.47;100.00;97278.69;5033157;28;20037;-73
2022/07/06 02:45:14;;;;;;;4.32;1.77;;;;;;;12.45;100.00;97278.94;5034163;28;20029;-74
2022/07/06 02:47:40;;;;;;;5.43;2.28;;;;;;;12.42;100.00;97284.78;5015188;28;20139;-74
2022/07/06 02:50:07;;;;;;;6.55;2.15;;;;;;;12.35;100.00;97278.72;5048792;28;20032;-74
2022/07/06 02:52:33;;;;;;;7.35;2.08;;;;;;;12.32;100.00;97286.44;5036608;28;20475;-74
2022/07/06 02:55:00;;;;;;;7.25;1.95;;;;;;;12.20;100.00;97291.84;5049390;28;20059;-73
2022/07/06 02:57:27;;;;;;;3.88;2.10;;;;;;;12.22;100.00;97284.41;5037001;28;20029;-74
2022/07/06 02:59:52;;;;;;;7.05;2.25;;;;;;;12.18;100.00;97289.41;5035735;28;20460;-74
2022/07/06 03:02:18;;;;;;;11.30;2.50;;;;;;;12.16;100.00;97294.22;5050428;28;20063;-74
2022/07/06 03:04:45;;;;;;;6.25;2.67;;;;;;;12.05;100.00;97292.34;5030037;28;20024;-74
2022/07/06 03:07:12;;;;;;;5.32;2.22;;;;;;;12.11;100.00;97295.97;5032465;28;20402;-75
2022/07/06 03:09:38;;;;;;;5.15;2.60;;;;;;;12.13;100.00;97293.84;5036111;28;20047;-74
2022/07/06 03:12:04;;;;;;;6.13;2.60;;;;;;;12.26;100.00;97294.41;5029677;28;20411;-75
2022/07/06 03:14:31;;;;;;;7.70;2.60;;;;;;;12.40;100.00;97292.25;5035043;28;20155;-74
2022/07/06 03:16:57;;;;;;;4.70;2.58;;;;;;;12.54;100.00;97298.16;5036646;28;20041;-75
2022/07/06 03:19:23;;;;;;;5.82;2.63;;;;;;;12.62;100.00;97292.41;5018824;28;20159;-74
2022/07/06 03:21:48;;;;;;;6.72;2.63;;;;;;;12.48;100.00;97291.88;5035426;28;20052;-74
2022/07/06 03:24:14;;;;;;;8.75;3.00;;;;;;;12.64;100.00;97290.28;5050254;28;20394;-74
2022/07/06 03:26:40;;;;;;;6.03;2.90;;;;;;;12.71;100.00;97287.44;5033951;28;20039;-74
2022/07/06 03:29:05;;;;;;;6.50;2.90;;;;;;;12.67;100.00;97294.34;5028862;28;20083;-74
2022/07/06 03:31:31;;;;;;;8.57;2.70;;;;;;;12.51;100.00;97294.06;5032842;28;20443;-74
2022/07/06 03:33:57;;;;;;;7.25;2.67;;;;;;;12.41;100.00;97293.88;5046465;28;20112;-75
2022/07/06 03:36:23;;;;;;;7.70;3.08;;;;;;;12.53;100.00;97299.22;5052228;28;20025;-74
2022/07/06 03:38:48;;;;;;;5.90;2.47;;;;;;;12.49;100.00;97292.69;5026696;28;20361;-74
2022/07/06 03:41:14;;;;;;;8.02;2.45;;;;;;;12.50;100.00;97295.13;5029845;28;20043;-74
2022/07/06 03:43:40;;;;;;;5.55;2.55;;;;;;;12.46;100.00;97302.03;5048336;28;20049;-73
2022/07/06 03:46:06;;;;;;;6.20;2.47;;;;;;;12.28;100.00;97302.19;5050293;28;20021;-74
2022/07/06 03:48:32;;;;;;;9.13;2.80;;;;;;;12.11;100.00;97317.44;5049588;28;20442;-74
2022/07/06 03:50:58;;;;;;;8.13;2.42;;;;;;;11.93;100.00;97305.00;5050494;28;20029;-73
2022/07/06 03:53:23;;;;;;;6.60;2.70;;;;;;;11.88;100.00;97313.72;5053437;28;20041;-75
2022/07/06 03:58:34;;;;;;;5.32;2.47;;;;;;;12.01;100.00;97318.03;5033005;28;20036;-75
2022/07/06 04:01:00;;;;;;;6.70;2.33;;;;;;;12.00;100.00;97321.78;5055582;28;20834;-73
2022/07/06 04:03:25;;;;;;;6.95;2.60;;;;;;;11.92;100.00;97327.50;5039171;28;20040;-74
2022/07/06 04:05:52;;;;;;;8.60;2.50;;;;;;;11.98;100.00;97322.00;5037046;28;20053;-74
2022/07/06 04:08:19;;;;;;;11.23;2.70;;;;;;;11.99;100.00;97320.97;5034674;28;20383;-75
2022/07/06 04:10:50;;;;;;;7.97;2.60;;;;;;;11.95;100.00;97327.03;5039928;28;20710;-74
2022/07/06 04:13:16;;;;;;;7.82;2.60;;;;;;;11.85;100.00;97332.19;5038573;28;20345;-73
2022/07/06 04:15:41;;;;;;;5.15;2.00;;;;;;;11.87;100.00;97335.44;5037091;28;20029;-73
2022/07/06 04:18:07;;;;;;;6.35;2.30;;;;;;;11.82;100.00;97328.06;5035605;28;20060;-74
2022/07/06 04:20:39;;;;;;;8.10;2.63;;;;;;;11.83;100.00;97328.88;5037720;28;20040;-73
2022/07/06 04:23:05;;;;;;;6.18;2.58;;;;;;;11.83;100.00;97340.47;5051543;28;20052;-73
2022/07/06 04:25:31;;;;;;;6.18;2.40;;;;;;;11.79;100.00;97341.13;5033168;28;20041;-74
2022/07/06 04:27:59;;;;;;;6.15;2.58;;;;;;;11.62;100.00;97343.69;5051452;28;20447;-74
2022/07/06 04:30:27;;;;;;;6.40;2.40;;;;;;;11.44;100.00;97341.94;5036719;28;20044;-74
2022/07/06 04:32:53;;;;;;;6.28;2.83;;;;;;;11.49;100.00;97347.41;5018985;28;20399;-73
2022/07/06 04:35:18;;;;;;;6.90;2.55;;;;;;;11.62;100.00;97343.69;5034307;28;20310;-73
2022/07/06 04:37:48;;;;;;;5.70;2.38;;;;;;;11.85;100.00;97351.75;5038760;28;20128;-74
2022/07/06 04:40:16;;;;;;;8.77;2.63;;;;;;;12.19;100.00;97350.06;5053772;28;20036;-73
2022/07/06 04:42:42;;;;;;;10.38;2.97;;;;;;;12.48;100.00;97350.09;5038160;28;20032;-73
2022/07/06 04:45:08;;;;;;;9.88;2.47;;;;;;;12.41;100.00;97350.25;5032539;28;20041;-74
2022/07/06 04:47:34;;;;;;;6.07;2.47;;;;;;;12.36;100.00;97341.25;5038754;28;20094;-74
2022/07/06 04:50:00;;;;;;;6.45;2.70;;;;;;;12.46;100.00;97341.50;5036661;28;20029;-74
2022/07/06 04:52:25;;;;;;;9.88;2.72;;;;;;;12.57;100.00;97342.50;5038122;28;20025;-73
2022/07/06 04:54:51;;;;;;;5.75;2.60;;;;;;;12.60;100.00;97331.25;5041194;28;20036;-73
2022/07/06 04:57:17;;;;;;;9.50;2.63;;;;;;;12.56;100.00;97339.00;5019593;28;20040;-73
2022/07/06 04:59:43;;;;;;;7.90;2.78;;;;;;;12.55;100.00;97346.22;5034815;28;20102;-74
2022/07/06 05:02:08;;;;;;;9.63;2.95;;;;;;;12.45;100.00;97351.41;5037185;28;20056;-74
2022/07/06 05:04:38;;;;;;;6.90;2.88;;;;;;;12.39;100.00;97347.00;5037700;28;20037;-73
2022/07/06 05:07:04;;;;;;;5.82;2.58;;;;;;;12.27;100.00;97354.25;5032734;28;20098;-73
2022/07/06 05:09:29;;;;;;;7.45;2.72;;;;;;;12.08;100.00;97355.47;5033603;28;20875;-73
2022/07/06 05:11:56;;;;;;;5.38;2.53;;;;;;;12.06;100.00;97358.41;5033104;28;20562;-74
2022/07/06 05:14:22;;;;;;;7.13;2.80;;;;;;;11.90;100.00;97349.16;5035795;28;20132;-74
2022/07/06 05:16:47;;;;;;;6.97;2.78;;;;;;;11.75;100.00;97356.03;5033370;28;20102;-73
2022/07/06 05:19:14;;;;;;;8.75;2.50;;;;;;;11.80;100.00;97354.31;5020719;28;20071;-74
2022/07/06 05:21:39;;;;;;;7.63;2.60;;;;;;;11.96;100.00;97345.56;5036589;28;20431;-73
2022/07/06 05:24:07;;;;;;;6.85;2.70;;;;;;;12.04;100.00;97346.25;5030918;28;20104;-74
2022/07/06 05:26:32;;;;;;;5.18;2.60;;;;;;;12.05;100.00;97348.69;5035944;28;20029;-73
2022/07/06 05:28:58;;;;;;;7.57;3.00;;;;;;;11.98;100.00;97356.03;5034513;28;20056;-74
2022/07/06 05:31:23;;;;;;;5.05;2.92;;;;;;;11.96;100.00;97358.97;5037029;28;20091;-74
2022/07/06 05:33:49;;;;;;;7.07;2.70;;;;;;;12.07;100.00;97367.25;5021544;28;20122;-73
2022/07/06 05:36:15;;;;;;;12.98;2.90;;;;;;;12.17;100.00;97354.84;5034341;28;20041;-74
2022/07/06 05:38:40;;;;;;;10.35;2.90;;;;;;;12.54;100.00;97367.94;5034353;28;20041;-74
2022/07/06 05:41:06;;;;;;;8.13;3.08;;;;;;;12.95;100.00;97361.47;5045420;28;20047;-74
2022/07/06 05:43:35;;;;;;;7.72;3.00;;;;;;;13.35;100.00;97365.94;5024065;28;20041;-73
2022/07/06 05:46:01;;;;;;;8.27;2.72;;;;;;;13.37;100.00;97363.81;5038196;28;20033;-74
2022/07/06 05:51:14;;;;;;;6.30;2.85;;;;;;;13.41;100.00;97364.97;5034522;28;20041;-75
2022/07/06 05:53:41;;;;;;;6.80;2.83;;;;;;;13.43;100.00;97373.59;5038390;28;20042;-74
2022/07/06 05:56:07;;;;;;;7.57;2.50;;;;;;;13.51;100.00;97377.75;5035777;28;20397;-74
2022/07/06 05:58:33;;;;;;;5.32;2.85;;;;;;;13.75;100.00;97375.69;5034591;28;20035;-74
2022/07/06 06:00:59;;;;;;;7.15;2.60;;;;;;;14.00;100.00;97367.97;5035282;28;20037;-74
2022/07/06 06:03:25;;;;;;;9.80;2.90;;;;;;;14.00;100.00;97372.56;5048643;28;20498;-74
2022/07/06 06:05:51;;;;;;;10.60;3.13;;;;;;;13.91;100.00;97372.97;5037630;28;20041;-74
2022/07/06 06:08:18;;;;;;;5.07;2.78;;;;;;;14.02;100.00;97370.44;5049690;28;20495;-74
2022/07/06 06:10:44;;;;;;;10.45;3.05;;;;;;;13.94;100.00;97371.69;5037610;28;20033;-74
2022/07/06 06:13:13;;;;;;;4.82;2.38;;;;;;;14.05;100.00;97364.56;5033377;28;20040;-73
2022/07/06 06:15:40;;;;;;;7.28;3.00;;;;;;;14.16;100.00;97369.84;5037778;28;20314;-74
2022/07/06 06:18:06;;;;;;;6.75;2.95;;;;;;;14.39;100.00;97370.66;5037293;28;20037;-74
2022/07/06 06:20:31;;;;;;;6.70;2.63;;;;;;;14.77;100.00;97367.09;5032191;28;20073;-75
2022/07/06 06:22:58;;;;;;;7.80;2.53;;;;;;;14.72;100.00;97367.06;5037648;28;20039;-73
2022/07/06 06:25:35;;;;;;;8.00;2.80;;;;;;;14.83;100.00;97360.69;5031020;28;20124;-74
2022/07/06 06:28:04;;;;;;;5.78;2.80;;;;;;;14.70;100.00;97372.66;5036319;28;20122;-74
2022/07/06 06:30:30;;;;;;;11.23;2.70;;;;;;;14.49;100.00;97378.91;5036335;28;20100;-74
2022/07/06 06:33:13;;;;;;;5.88;2.50;;;;;;;14.54;100.00;97373.56;5036493;28;20120;-74
2022/07/06 06:35:47;;;;;;;5.28;2.30;;;;;;;14.37;100.00;97370.91;5034625;28;20037;-74
2022/07/06 06:38:13;;;;;;;4.40;2.08;;;;;;;14.39;100.00;97376.84;5035692;28;20123;-74
2022/07/06 06:40:39;;;;;;;6.10;2.45;;;;;;;14.18;100.00;97377.66;5034976;28;20579;-74
2022/07/06 06:43:04;;;;;;;5.63;2.30;;;;;;;13.92;100.00;97382.69;5034984;28;20586;-74
2022/07/06 06:45:31;;;;;;;5.38;2.20;;;;;;;14.01;100.00;97379.56;5036426;28;20020;-74
2022/07/06 06:47:56;;;;;;;6.32;2.70;;;;;;;14.12;100.00;97384.84;5034021;28;20033;-74
2022/07/06 06:50:25;;;;;;;7.07;2.60;;;;;;;14.24;100.00;97379.38;5033803;28;20033;-74
2022/07/06 06:52:51;;;;;;;5.47;2.40;;;;;;;14.36;100.00;97377.34;5051527;28;20392;-74
2022/07/06 06:55:17;;;;;;;5.40;2.00;;;;;;;14.45;100.00;97388.50;5034119;28;20033;-74
2022/07/06 06:57:44;;;;;;;6.47;2.10;;;;;;;14.34;100.00;97389.44;5036471;28;20029;-74
2022/07/06 07:00:11;;;;;;;9.45;2.08;;;;;;;14.56;100.00;97392.19;5034501;28;20112;-74
2022/07/06 07:02:37;;;;;;;7.93;2.10;;;;;;;15.08;100.00;97386.28;5033827;28;20139;-74
2022/07/06 07:05:03;;;;;;;6.43;1.90;;;;;;;15.36;100.00;97401.38;5038766;28;20115;-74
2022/07/06 07:07:28;;;;;;;6.18;1.85;;;;;;;15.26;100.00;97392.13;5034932;28;20044;-74
2022/07/06 07:09:54;;;;;;;8.38;2.20;;;;;;;15.34;100.00;97398.94;5034972;28;20392;-74
2022/07/06 07:12:19;;;;;;;7.00;2.00;;;;;;;15.46;100.00;97396.06;5035426;28;20244;-75
2022/07/06 07:14:45;;;;;;;5.43;1.60;;;;;;;15.36;100.00;97404.06;5035123;28;20100;-74
2022/07/06 07:17:11;;;;;;;4.35;1.73;;;;;;;15.36;100.00;97402.19;5034243;28;20053;-74
2022/07/06 07:19:37;;;;;;;5.65;1.77;;;;;;;15.36;100.00;97401.38;5034680;28;20044;-74
2022/07/06 07:22:03;;;;;;;5.22;1.70;;;;;;;15.39;100.00;97393.56;5036091;28;20044;-74
2022/07/06 07:24:29;;;;;;;4.20;1.60;;;;;;;15.48;100.00;97402.81;5038222;28;20033;-75
2022/07/06 07:26:54;;;;;;;10.75;2.10;;;;;;;15.94;100.00;97407.78;5041263;28;20495;-74
2022/07/06 07:29:20;;;;;;;4.90;1.55;;;;;;;16.35;100.00;97403.47;5037565;28;20037;-75
2022/07/06 07:31:45;;;;;;;8.27;2.10;;;;;;;16.26;100.00;97405.81;5040749;28;20037;-74
2022/07/06 07:34:14;;;;;;;3.05;1.63;;;;;;;15.85;100.00;97404.75;5039252;28;20091;-75
2022/07/06 07:36:40;;;;;;;7.00;1.85;;;;;;;15.78;100.00;97407.69;5037523;28;20036;-74
2022/07/06 07:39:05;;;;;;;7.70;1.67;;;;;;;15.82;100.00;97413.38;5037821;28;20029;-74
2022/07/06 07:41:31;;;;;;;3.53;1.52;;;;;;;15.98;100.00;97411.59;5036700;28;20444;-75
2022/07/06 07:43:56;;;;;;;6.78;1.75;;;;;;;16.21;100.00;97408.50;5038058;28;20025;-75
2022/07/06 07:46:22;;;;;;;4.70;1.73;;;;;;;16.51;100.00;97413.28;5038298;28;20442;-75
2022/07/06 07:48:48;;;;;;;4.07;1.40;;;;;;;16.73;100.00;97410.44;5039055;28;20032;-74
2022/07/06 07:51:13;;;;;;;6.72;1.63;;;;;;;16.49;100.00;97414.59;5042663;28;20067;-73
2022/07/06 07:53:39;;;;;;;5.10;1.70;;;;;;;16.13;100.00;97415.22;5039596;28;20482;-74
2022/07/06 07:56:05;;;;;;;5.43;1.55;;;;;;;15.82;100.00;97416.09;5035320;28;20045;-73
2022/07/06 07:58:30;;;;;;;4.30;1.65;;;;;;;15.49;100.00;97409.88;5051638;28;20032;-74
2022/07/06 08:00:57;;;;;;;5.22;1.60;;;;;;;15.29;100.00;97402.38;5040729;28;20041;-73
2022/07/06 08:03:22;;;;;;;3.80;1.77;;;;;;;15.21;100.00;97400.16;5035745;28;20037;-74
2022/07/06 08:05:48;;;;;;;6.20;2.13;;;;;;;15.20;100.00;97403.94;5025729;28;20025;-74
2022/07/06 08:08:14;;;;;;;4.30;1.55;;;;;;;15.69;100.00;97411.94;5034799;28;20042;-73
2022/07/06 08:10:40;;;;;;;7.97;1.70;;;;;;;16.32;99.06;97404.78;5024161;28;20031;-73
2022/07/06 08:13:07;;;;;;;4.35;1.45;;;;;;;16.68;99.19;97396.84;5039418;28;20033;-74
2022/07/06 08:15:33;;;;;;;5.72;1.40;;;;;;;17.08;97.39;97396.19;5033185;28;20037;-73
2022/07/06 08:17:59;;;;;;;4.35;1.25;;;;;;;17.22;97.54;97401.91;5037847;28;20053;-74
2022/07/06 08:20:24;;;;;;;4.35;1.58;;;;;;;16.85;99.09;97400.19;5036313;28;21150;-74
2022/07/06 08:22:50;;;;;;;3.67;1.50;;;;;;;16.93;97.19;97377.22;5054216;28;20585;-74
2022/07/06 08:25:16;;;;;;;3.33;1.10;;;;;;;17.17;98.00;97388.34;5034106;28;20027;-74
2022/07/06 08:27:43;;;;;;;3.05;1.20;;;;;;;17.58;94.67;97393.81;5038844;28;20357;-74
2022/07/06 08:30:09;;;;;;;4.35;1.00;;;;;;;17.68;90.47;97385.69;5005816;28;20037;-72
2022/07/06 08:32:40;;;;;;;3.00;0.93;;;;;;;17.64;90.30;97387.31;5034614;28;20589;-74
2022/07/06 08:35:09;;;;;;;3.80;1.35;;;;;;;17.57;92.19;97386.78;5035436;28;20552;-74
2022/07/06 08:37:35;;;;;;;3.08;1.27;;;;;;;17.69;92.42;97401.66;5035809;28;20033;-74
2022/07/06 08:40:02;;;;;;;3.88;1.42;;;;;;;17.43;94.25;97394.59;5038372;28;20055;-74
2022/07/06 08:42:34;;;;;;;4.05;1.35;;;;;;;17.35;95.22;97411.38;5039586;28;20017;-74
2022/07/06 08:45:05;;;;;;;4.47;1.35;;;;;;;17.14;97.25;97405.94;5039657;28;20361;-73
2022/07/06 08:47:31;;;;;;;3.95;1.20;;;;;;;17.12;98.07;97407.28;5029846;28;20033;-74
2022/07/06 08:49:58;;;;;;;3.53;1.17;;;;;;;16.95;99.06;97408.31;5037683;28;20458;-73
2022/07/06 08:52:24;;;;;;;3.63;1.35;;;;;;;17.14;96.85;97405.94;5038101;28;20474;-74
2022/07/06 08:54:50;;;;;;;4.43;1.20;;;;;;;17.22;95.74;97400.00;5018158;28;20053;-73
2022/07/06 08:57:17;;;;;;;4.45;1.10;;;;;;;17.24;96.82;97405.94;5037433;28;20115;-74
2022/07/06 08:59:42;;;;;;;5.05;1.30;;;;;;;17.14;98.50;97413.25;5032622;28;20563;-73
2022/07/06 09:02:10;;;;;;;4.05;1.45;;;;;;;16.95;98.85;97402.91;5031633;28;20064;-74
2022/07/06 09:04:37;;;;;;;4.13;1.30;;;;;;;16.50;100.00;97402.69;5033035;28;20082;-74
2022/07/06 09:07:03;;;;;;;4.20;1.30;;;;;;;16.93;100.00;97404.25;5038975;28;20535;-73
2022/07/06 09:09:30;;;;;;;6.97;1.38;;;;;;;17.13;99.92;97398.91;5033701;28;20028;-73
2022/07/06 09:11:57;;;;;;;2.60;1.10;;;;;;;17.67;91.60;97395.72;5033067;28;20102;-74
2022/07/06 09:14:22;;;;;;;4.40;1.30;;;;;;;18.30;88.55;97392.69;5049978;28;20033;-74
2022/07/06 09:16:52;;;;;;;4.43;1.25;;;;;;;18.66;88.52;97393.38;5038434;28;20034;-74
2022/07/06 09:19:18;;;;;;;5.57;1.38;;;;;;;18.86;87.60;97392.47;5032862;28;20258;-75
2022/07/06 09:21:43;;;;;;;5.25;1.52;;;;;;;18.76;86.25;97387.13;5036335;28;20036;-75
2022/07/06 09:24:11;;;;;;;3.05;1.00;;;;;;;18.81;88.20;97395.22;5030783;28;20120;-74
2022/07/06 09:26:37;;;;;;;5.32;1.08;;;;;;;18.79;88.36;97397.41;5036720;28;20563;-74
2022/07/06 09:29:04;;;;;;;4.15;1.10;;;;;;;18.46;89.15;97399.66;5032620;28;20037;-75
2022/07/06 09:31:30;;;;;;;3.67;1.20;;;;;;;18.90;88.90;97399.75;5037784;28;20119;-74
2022/07/06 09:34:05;;;;;;;2.50;1.13;;;;;;;18.84;86.58;97400.09;5035258;28;20214;-74
2022/07/06 09:36:56;;;;;;;4.40;1.17;;;;;;;19.09;85.81;97401.84;5035721;28;20543;-74
2022/07/06 09:39:23;;;;;;;7.93;1.27;;;;;;;19.32;86.49;97405.78;5032109;28;20037;-74
2022/07/06 09:41:51;;;;;;;4.47;1.33;;;;;;;19.25;85.06;97395.25;5034982;28;20033;-74
2022/07/06 09:44:29;;;;;;;3.08;1.00;;;;;;;19.23;82.27;97399.34;5022059;28;20045;-74
2022/07/06 09:46:59;;;;;;;3.17;1.02;;;;;;;20.05;81.50;97386.75;5048586;28;20025;-74
2022/07/06 09:49:26;;;;;;;4.22;1.30;;;;;;;20.35;81.32;97395.69;5036455;28;20387;-74
2022/07/06 09:51:57;;;;;;;2.88;1.20;;;;;;;20.00;80.91;97403.91;5040949;28;20052;-74
2022/07/06 09:54:23;;;;;;;2.80;1.50;;;;;;;19.83;80.97;97400.78;5038873;28;20029;-73
2022/07/06 09:56:53;;;;;;;4.43;1.50;;;;;;;19.84;82.05;97399.69;5041126;28;20116;-74
2022/07/06 09:59:21;;;;;;;5.22;1.42;;;;;;;19.67;77.95;97402.81;5054596;28;20040;-73
2022/07/06 10:01:50;;;;;;;5.50;1.27;;;;;;;19.67;79.02;97397.41;5049485;28;20324;-73
2022/07/06 10:04:18;;;;;;;3.38;1.20;;;;;;;19.79;77.24;97396.22;5034559;28;20623;-73
2022/07/06 10:06:44;;;;;;;5.30;1.50;;;;;;;19.82;81.37;97392.94;5053362;28;20036;-73
2022/07/06 10:09:11;;;;;;;5.53;1.30;;;;;;;18.61;83.61;97396.91;5034545;28;20029;-73
2022/07/06 10:11:43;;;;;;;6.30;1.40;;;;;;;18.69;86.71;97398.25;5048981;28;20510;-74
2022/07/06 10:14:11;;;;;;;6.15;1.23;;;;;;;18.93;86.44;97387.56;5035772;28;20033;-73
2022/07/06 10:16:40;;;;;;;5.00;1.90;;;;;;;18.78;85.10;97388.44;5035451;28;20028;-73
2022/07/06 10:19:07;;;;;;;4.05;1.17;;;;;;;18.83;79.64;97385.72;4994397;28;20076;-73
2022/07/06 10:21:37;;;;;;;4.72;1.20;;;;;;;18.99;78.89;97391.88;5002016;28;20053;-74
2022/07/06 10:24:07;;;;;;;5.72;1.55;;;;;;;19.39;78.67;97379.16;4998968;28;20129;-74
2022/07/06 10:26:35;;;;;;;2.63;1.10;;;;;;;19.98;73.63;97384.34;4993660;28;20030;-74
2022/07/06 10:29:03;;;;;;;4.35;1.00;;;;;;;20.77;63.61;97381.34;4993657;28;20038;-73
2022/07/06 10:31:30;;;;;;;3.08;1.17;;;;;;;20.52;62.50;97382.47;4649350;28;9999755;-73
2022/07/06 10:34:00;;;;;;;4.57;1.40;;;;;;;20.25;64.33;97386.53;4647437;28;10000453;-73
2022/07/06 10:36:29;;;;;;;;;;;;;;;19.93;67.11;97387.13;4994124;28;20120;-73
2022/07/06 10:38:55;;;;;;;6.35;1.67;;;;;;;19.47;72.86;97384.78;5013649;28;19920;-73
2022/07/06 10:41:31;;;;;;;6.32;1.52;;;;;;;19.34;76.86;97390.03;5006186;28;20038;-73
2022/07/06 10:43:58;;;;;;;3.25;1.30;;;;;;;19.64;75.93;97387.13;4998493;28;20038;-73
2022/07/06 10:46:28;;;;;;;5.35;1.27;;;;;;;19.81;72.25;97388.59;5008826;28;20509;-73
2022/07/06 10:48:56;;;;;;;3.35;1.35;;;;;;;19.92;69.86;97395.56;4994666;28;20034;-73
2022/07/06 10:51:32;;;;;;;2.97;1.45;;;;;;;20.28;69.19;97394.09;4995240;28;20079;-73
2022/07/06 10:54:05;;;;;;;2.58;1.20;;;;;;;20.13;69.56;97401.59;4995375;28;20316;-74
2022/07/06 10:56:40;;;;;;;3.75;1.30;;;;;;;20.33;65.86;97393.25;4995519;28;20025;-74
2022/07/06 10:59:14;;;;;;;4.00;1.20;;;;;;;20.49;62.19;97391.22;5011140;28;20034;-74
2022/07/06 11:01:39;;;;;;;3.97;1.05;;;;;;;20.60;62.87;97384.53;4998954;28;20060;-74
2022/07/06 11:04:07;;;;;;;4.05;1.27;;;;;;;20.25;60.54;97386.53;4997895;28;20474;-73
2022/07/06 11:06:36;;;;;;;4.18;1.30;;;;;;;19.90;68.04;97387.69;5001900;28;20029;-73
2022/07/06 11:09:07;;;;;;;4.95;1.20;;;;;;;19.94;70.10;97387.94;5000611;28;20790;-73
2022/07/06 11:11:33;;;;;;;8.30;1.52;;;;;;;20.79;62.89;97390.84;5002057;28;20037;-74
2022/07/06 11:14:06;;;;;;;4.35;1.40;;;;;;;20.52;62.96;97393.34;4983948;28;20038;-74
2022/07/06 11:16:49;;;;;;;4.53;1.75;;;;;;;22.13;64.78;97383.09;4996801;28;20247;-74
2022/07/06 11:19:19;;;;;;;7.53;1.13;;;;;;;22.52;49.34;97381.81;4998178;28;20450;-75
2022/07/06 11:21:51;;;;;;;3.58;1.25;;;;;;;22.17;49.25;97386.03;4999823;28;20049;-74
2022/07/06 11:24:21;;;;;;;3.25;1.20;;;;;;;21.90;52.63;97382.13;4998592;28;20046;-74
2022/07/06 11:26:48;;;;;;;2.80;1.10;;;;;;;22.23;52.93;97379.38;4999912;28;20113;-74
2022/07/06 11:29:17;;;;;;;4.30;1.10;;;;;;;21.95;53.45;97382.03;4997269;28;20886;-74
2022/07/06 11:31:44;;;;;;;3.47;1.15;;;;;;;21.74;55.14;97375.31;4969403;28;20069;-74